sensor_id;sensor_type;location;lat;lon;timestamp;temperature;humidity
4651;DHT22;2338;49.602;8.722;2022-12-07T00:02:40;5.00;99.90
4651;DHT22;2338;49.602;8.722;2022-12-07T00:05:26;4.80;99.90
4651;DHT22;2338;49.602;8.722;2022-12-07T00:08:11;4.80;99.90
4651;DHT22;2338;49.602;8.722;2022-12-07T00:11:02;4.90;99.90
4651;DHT22;2338;49.602;8.722;2022-12-07T00:13:51;4.90;99.90
4651;DHT22;2338;49.602;8.722;2022-12-07T00:16:37;4.80;99.90
4651;DHT22;2338;49.602;8.722;2022-12-07T00:19:23;4.90;99.90
4651;DHT22;2338;49.602;8.722;2022-12-07T00:22:08;4.90;99.90
4651;DHT22;2338;49.602;8.722;2022-12-07T00:24:54;4.90;99.90
4651;DHT22;2338;49.602;8.722;2022-12-07T00:27:41;4.90;99.90
4651;DHT22;2338;49.602;8.722;2022-12-07T00:30:27;4.90;99.90
4651;DHT22;2338;49.602;8.722;2022-12-07T00:33:12;4.90;99.90
4651;DHT22;2338;49.602;8.722;2022-12-07T00:35:59;4.90;99.90
4651;DHT22;2338;49.602;8.722;2022-12-07T00:38:45;4.90;99.90
4651;DHT22;2338;49.602;8.722;2022-12-07T00:41:30;5.00;99.90
4651;DHT22;2338;49.602;8.722;2022-12-07T00:44:17;5.00;99.90
4651;DHT22;2338;49.602;8.722;2022-12-07T00:47:03;5.00;99.90
4651;DHT22;2338;49.602;8.722;2022-12-07T00:49:48;5.00;99.90
4651;DHT22;2338;49.602;8.722;2022-12-07T00:52:34;5.10;99.90
4651;DHT22;2338;49.602;8.722;2022-12-07T00:55:20;5.20;99.90
4651;DHT22;2338;49.602;8.722;2022-12-07T00:58:06;5.20;99.90
4651;DHT22;2338;49.602;8.722;2022-12-07T01:00:53;5.20;99.90
4651;DHT22;2338;49.602;8.722;2022-12-07T01:03:38;5.20;99.90
4651;DHT22;2338;49.602;8.722;2022-12-07T01:06:24;5.20;99.90
4651;DHT22;2338;49.602;8.722;2022-12-07T01:09:10;5.10;99.90
4651;DHT22;2338;49.602;8.722;2022-12-07T01:11:55;5.10;99.90
4651;DHT22;2338;49.602;8.722;2022-12-07T01:14:41;5.20;99.90
4651;DHT22;2338;49.602;8.722;2022-12-07T01:17:29;5.20;99.90
4651;DHT22;2338;49.602;8.722;2022-12-07T01:20:15;5.30;99.90
4651;DHT22;2338;49.602;8.722;2022-12-07T01:23:01;5.20;99.90
4651;DHT22;2338;49.602;8.722;2022-12-07T01:25:54;5.30;99.90
4651;DHT22;2338;49.602;8.722;2022-12-07T01:28:39;5.30;99.90
4651;DHT22;2338;49.602;8.722;2022-12-07T01:31:26;5.30;99.90
4651;DHT22;2338;49.602;8.722;2022-12-07T01:34:13;5.30;99.90
4651;DHT22;2338;49.602;8.722;2022-12-07T01:36:59;5.20;99.90
4651;DHT22;2338;49.602;8.722;2022-12-07T01:39:45;4.90;99.90
4651;DHT22;2338;49.602;8.722;2022-12-07T01:42:33;4.90;99.90
4651;DHT22;2338;49.602;8.722;2022-12-07T01:45:43;4.90;99.90
4651;DHT22;2338;49.602;8.722;2022-12-07T01:48:32;5.00;99.90
4651;DHT22;2338;49.602;8.722;2022-12-07T01:51:20;4.80;99.90
4651;DHT22;2338;49.602;8.722;2022-12-07T01:54:06;4.70;99.90
4651;DHT22;2338;49.602;8.722;2022-12-07T01:56:54;4.60;99.90
4651;DHT22;2338;49.602;8.722;2022-12-07T01:59:41;4.60;99.90
4651;DHT22;2338;49.602;8.722;2022-12-07T02:02:30;4.60;99.90
4651;DHT22;2338;49.602;8.722;2022-12-07T02:05:17;4.60;99.90
4651;DHT22;2338;49.602;8.722;2022-12-07T02:08:05;4.70;99.90
4651;DHT22;2338;49.602;8.722;2022-12-07T02:10:50;4.70;99.90
4651;DHT22;2338;49.602;8.722;2022-12-07T02:13:38;4.80;99.90
4651;DHT22;2338;49.602;8.722;2022-12-07T02:16:34;4.90;99.90
4651;DHT22;2338;49.602;8.722;2022-12-07T02:20:00;5.00;99.90
4651;DHT22;2338;49.602;8.722;2022-12-07T02:23:01;5.00;99.90
4651;DHT22;2338;49.602;8.722;2022-12-07T02:26:02;4.80;99.90
4651;DHT22;2338;49.602;8.722;2022-12-07T02:29:12;4.80;99.90
4651;DHT22;2338;49.602;8.722;2022-12-07T02:32:05;4.70;99.90
4651;DHT22;2338;49.602;8.722;2022-12-07T02:34:58;4.70;99.90
4651;DHT22;2338;49.602;8.722;2022-12-07T02:37:53;4.70;99.90
4651;DHT22;2338;49.602;8.722;2022-12-07T02:40:45;4.60;99.90
4651;DHT22;2338;49.602;8.722;2022-12-07T02:43:35;4.60;99.90
4651;DHT22;2338;49.602;8.722;2022-12-07T02:46:28;4.60;99.90
4651;DHT22;2338;49.602;8.722;2022-12-07T02:49:15;4.60;99.90
4651;DHT22;2338;49.602;8.722;2022-12-07T02:52:01;4.70;99.90
4651;DHT22;2338;49.602;8.722;2022-12-07T02:54:46;4.70;99.90
4651;DHT22;2338;49.602;8.722;2022-12-07T02:57:54;4.80;99.90
4651;DHT22;2338;49.602;8.722;2022-12-07T03:00:52;4.90;99.90
4651;DHT22;2338;49.602;8.722;2022-12-07T03:03:40;4.90;99.90
4651;DHT22;2338;49.602;8.722;2022-12-07T03:06:31;4.90;99.90
4651;DHT22;2338;49.602;8.722;2022-12-07T03:09:21;4.80;99.90
4651;DHT22;2338;49.602;8.722;2022-12-07T03:12:16;4.90;99.90
4651;DHT22;2338;49.602;8.722;2022-12-07T03:15:07;4.90;99.90
4651;DHT22;2338;49.602;8.722;2022-12-07T03:17:56;4.80;99.90
4651;DHT22;2338;49.602;8.722;2022-12-07T03:20:46;4.70;99.90
4651;DHT22;2338;49.602;8.722;2022-12-07T03:23:35;4.70;99.90
4651;DHT22;2338;49.602;8.722;2022-12-07T03:26:27;4.60;99.90
4651;DHT22;2338;49.602;8.722;2022-12-07T03:29:19;4.60;99.90
4651;DHT22;2338;49.602;8.722;2022-12-07T03:32:09;4.50;99.90
4651;DHT22;2338;49.602;8.722;2022-12-07T03:35:01;4.70;99.90
4651;DHT22;2338;49.602;8.722;2022-12-07T03:37:54;4.70;99.90
4651;DHT22;2338;49.602;8.722;2022-12-07T03:40:45;4.70;99.90
4651;DHT22;2338;49.602;8.722;2022-12-07T03:43:32;4.80;99.90
4651;DHT22;2338;49.602;8.722;2022-12-07T03:46:21;4.90;99.90
4651;DHT22;2338;49.602;8.722;2022-12-07T03:49:15;5.00;99.90
4651;DHT22;2338;49.602;8.722;2022-12-07T03:52:16;4.70;99.90
4651;DHT22;2338;49.602;8.722;2022-12-07T03:55:10;4.70;99.90
4651;DHT22;2338;49.602;8.722;2022-12-07T03:58:00;4.70;99.90
4651;DHT22;2338;49.602;8.722;2022-12-07T04:00:48;4.80;99.90
4651;DHT22;2338;49.602;8.722;2022-12-07T04:03:34;4.90;99.90
4651;DHT22;2338;49.602;8.722;2022-12-07T04:06:19;4.80;99.90
4651;DHT22;2338;49.602;8.722;2022-12-07T04:09:05;4.80;99.90
4651;DHT22;2338;49.602;8.722;2022-12-07T04:11:52;4.80;99.90
4651;DHT22;2338;49.602;8.722;2022-12-07T04:14:38;4.90;99.90
4651;DHT22;2338;49.602;8.722;2022-12-07T04:17:23;5.00;99.90
4651;DHT22;2338;49.602;8.722;2022-12-07T04:20:10;4.90;99.90
4651;DHT22;2338;49.602;8.722;2022-12-07T04:22:55;4.90;99.90
4651;DHT22;2338;49.602;8.722;2022-12-07T04:25:41;5.00;99.90
4651;DHT22;2338;49.602;8.722;2022-12-07T04:28:28;5.10;99.90
4651;DHT22;2338;49.602;8.722;2022-12-07T04:31:14;5.20;99.90
4651;DHT22;2338;49.602;8.722;2022-12-07T04:33:59;5.10;99.90
4651;DHT22;2338;49.602;8.722;2022-12-07T04:36:46;5.10;99.90
4651;DHT22;2338;49.602;8.722;2022-12-07T04:39:32;5.10;99.90
4651;DHT22;2338;49.602;8.722;2022-12-07T04:42:18;5.20;99.90
4651;DHT22;2338;49.602;8.722;2022-12-07T04:45:06;5.10;99.90
4651;DHT22;2338;49.602;8.722;2022-12-07T04:47:52;5.00;99.90
4651;DHT22;2338;49.602;8.722;2022-12-07T04:50:37;5.10;99.90
4651;DHT22;2338;49.602;8.722;2022-12-07T04:53:23;5.10;99.90
4651;DHT22;2338;49.602;8.722;2022-12-07T04:56:09;5.20;99.90
4651;DHT22;2338;49.602;8.722;2022-12-07T04:58:55;5.20;99.90
4651;DHT22;2338;49.602;8.722;2022-12-07T05:01:42;5.10;99.90
4651;DHT22;2338;49.602;8.722;2022-12-07T05:04:28;5.10;99.90
4651;DHT22;2338;49.602;8.722;2022-12-07T05:07:14;5.00;99.90
4651;DHT22;2338;49.602;8.722;2022-12-07T05:10:00;5.10;99.90
4651;DHT22;2338;49.602;8.722;2022-12-07T05:12:45;5.10;99.90
4651;DHT22;2338;49.602;8.722;2022-12-07T05:15:31;5.00;99.90
4651;DHT22;2338;49.602;8.722;2022-12-07T05:18:18;5.00;99.90
4651;DHT22;2338;49.602;8.722;2022-12-07T05:21:04;5.10;99.90
4651;DHT22;2338;49.602;8.722;2022-12-07T05:23:49;5.10;99.90
4651;DHT22;2338;49.602;8.722;2022-12-07T05:26:35;5.10;99.90
4651;DHT22;2338;49.602;8.722;2022-12-07T05:29:21;5.20;99.90
4651;DHT22;2338;49.602;8.722;2022-12-07T05:32:06;5.20;99.90
4651;DHT22;2338;49.602;8.722;2022-12-07T05:34:53;5.20;99.90
4651;DHT22;2338;49.602;8.722;2022-12-07T05:37:39;5.20;99.90
4651;DHT22;2338;49.602;8.722;2022-12-07T05:40:24;5.10;99.90
4651;DHT22;2338;49.602;8.722;2022-12-07T05:43:11;5.10;99.90
4651;DHT22;2338;49.602;8.722;2022-12-07T05:45:56;5.10;99.90
4651;DHT22;2338;49.602;8.722;2022-12-07T05:48:42;5.10;99.90
4651;DHT22;2338;49.602;8.722;2022-12-07T05:51:29;5.10;99.90
4651;DHT22;2338;49.602;8.722;2022-12-07T05:54:14;5.20;99.90
4651;DHT22;2338;49.602;8.722;2022-12-07T05:57:00;5.10;99.90
4651;DHT22;2338;49.602;8.722;2022-12-07T05:59:46;5.10;99.90
4651;DHT22;2338;49.602;8.722;2022-12-07T06:02:30;5.10;99.90
4651;DHT22;2338;49.602;8.722;2022-12-07T06:05:16;5.10;99.90
4651;DHT22;2338;49.602;8.722;2022-12-07T06:08:03;5.20;99.90
4651;DHT22;2338;49.602;8.722;2022-12-07T06:10:48;5.20;99.90
4651;DHT22;2338;49.602;8.722;2022-12-07T06:13:56;5.10;99.90
4651;DHT22;2338;49.602;8.722;2022-12-07T06:16:41;5.10;99.90
4651;DHT22;2338;49.602;8.722;2022-12-07T06:19:26;5.20;99.90
4651;DHT22;2338;49.602;8.722;2022-12-07T06:22:12;5.20;99.90
4651;DHT22;2338;49.602;8.722;2022-12-07T06:24:59;5.20;99.90
4651;DHT22;2338;49.602;8.722;2022-12-07T06:27:45;5.20;99.90
4651;DHT22;2338;49.602;8.722;2022-12-07T06:30:31;5.20;99.90
4651;DHT22;2338;49.602;8.722;2022-12-07T06:33:17;5.10;99.90
4651;DHT22;2338;49.602;8.722;2022-12-07T06:36:02;5.10;99.90
4651;DHT22;2338;49.602;8.722;2022-12-07T06:38:48;5.20;99.90
4651;DHT22;2338;49.602;8.722;2022-12-07T06:41:35;5.20;99.90
4651;DHT22;2338;49.602;8.722;2022-12-07T06:44:21;5.20;99.90
4651;DHT22;2338;49.602;8.722;2022-12-07T06:47:07;5.10;99.90
4651;DHT22;2338;49.602;8.722;2022-12-07T06:49:53;5.00;99.90
4651;DHT22;2338;49.602;8.722;2022-12-07T06:52:39;5.00;99.90
4651;DHT22;2338;49.602;8.722;2022-12-07T06:55:24;5.10;99.90
4651;DHT22;2338;49.602;8.722;2022-12-07T06:58:11;5.10;99.90
4651;DHT22;2338;49.602;8.722;2022-12-07T07:00:57;5.20;99.90
4651;DHT22;2338;49.602;8.722;2022-12-07T07:03:43;5.20;99.90
4651;DHT22;2338;49.602;8.722;2022-12-07T07:06:28;5.20;99.90
4651;DHT22;2338;49.602;8.722;2022-12-07T07:09:14;5.30;99.90
4651;DHT22;2338;49.602;8.722;2022-12-07T07:11:59;5.40;99.90
4651;DHT22;2338;49.602;8.722;2022-12-07T07:14:46;5.30;99.90
4651;DHT22;2338;49.602;8.722;2022-12-07T07:17:32;5.30;99.90
4651;DHT22;2338;49.602;8.722;2022-12-07T07:20:18;5.30;99.90
4651;DHT22;2338;49.602;8.722;2022-12-07T07:23:04;5.30;99.90
4651;DHT22;2338;49.602;8.722;2022-12-07T07:25:49;5.30;99.90
4651;DHT22;2338;49.602;8.722;2022-12-07T07:28:35;5.30;99.90
4651;DHT22;2338;49.602;8.722;2022-12-07T07:31:22;5.30;99.90
4651;DHT22;2338;49.602;8.722;2022-12-07T07:34:07;5.40;99.90
4651;DHT22;2338;49.602;8.722;2022-12-07T07:36:53;5.40;99.90
4651;DHT22;2338;49.602;8.722;2022-12-07T07:39:39;5.50;99.90
4651;DHT22;2338;49.602;8.722;2022-12-07T07:42:24;5.50;99.90
4651;DHT22;2338;49.602;8.722;2022-12-07T07:45:10;5.30;99.90
4651;DHT22;2338;49.602;8.722;2022-12-07T07:47:57;5.30;99.90
4651;DHT22;2338;49.602;8.722;2022-12-07T07:50:42;5.30;99.90
4651;DHT22;2338;49.602;8.722;2022-12-07T07:53:28;5.30;99.90
4651;DHT22;2338;49.602;8.722;2022-12-07T07:56:14;5.40;99.90
4651;DHT22;2338;49.602;8.722;2022-12-07T07:58:59;5.50;99.90
4651;DHT22;2338;49.602;8.722;2022-12-07T08:01:45;5.50;99.90
4651;DHT22;2338;49.602;8.722;2022-12-07T08:04:32;5.50;99.90
4651;DHT22;2338;49.602;8.722;2022-12-07T08:07:17;5.50;99.90
4651;DHT22;2338;49.602;8.722;2022-12-07T08:10:04;5.50;99.90
4651;DHT22;2338;49.602;8.722;2022-12-07T08:12:50;5.50;99.90
4651;DHT22;2338;49.602;8.722;2022-12-07T08:15:53;5.50;99.90
4651;DHT22;2338;49.602;8.722;2022-12-07T08:18:40;5.50;99.90
4651;DHT22;2338;49.602;8.722;2022-12-07T08:21:27;5.50;99.90
4651;DHT22;2338;49.602;8.722;2022-12-07T08:24:13;5.50;99.90
4651;DHT22;2338;49.602;8.722;2022-12-07T08:26:59;5.50;99.90
4651;DHT22;2338;49.602;8.722;2022-12-07T08:29:44;5.60;99.90
4651;DHT22;2338;49.602;8.722;2022-12-07T08:32:30;5.50;99.90
4651;DHT22;2338;49.602;8.722;2022-12-07T08:35:16;5.50;99.90
4651;DHT22;2338;49.602;8.722;2022-12-07T08:38:03;5.50;99.90
4651;DHT22;2338;49.602;8.722;2022-12-07T08:40:54;5.50;99.90
4651;DHT22;2338;49.602;8.722;2022-12-07T08:43:40;5.60;99.90
4651;DHT22;2338;49.602;8.722;2022-12-07T08:46:30;5.50;99.90
4651;DHT22;2338;49.602;8.722;2022-12-07T08:49:20;5.50;99.90
4651;DHT22;2338;49.602;8.722;2022-12-07T08:52:06;5.50;99.90
4651;DHT22;2338;49.602;8.722;2022-12-07T08:54:53;5.40;99.90
4651;DHT22;2338;49.602;8.722;2022-12-07T08:57:39;5.40;99.90
4651;DHT22;2338;49.602;8.722;2022-12-07T09:00:26;5.50;99.90
4651;DHT22;2338;49.602;8.722;2022-12-07T09:03:12;5.50;99.90
4651;DHT22;2338;49.602;8.722;2022-12-07T09:05:58;5.60;99.90
4651;DHT22;2338;49.602;8.722;2022-12-07T09:08:47;5.70;99.90
4651;DHT22;2338;49.602;8.722;2022-12-07T09:11:34;5.80;99.90
4651;DHT22;2338;49.602;8.722;2022-12-07T09:14:20;5.80;99.90
4651;DHT22;2338;49.602;8.722;2022-12-07T09:17:06;5.80;99.90
4651;DHT22;2338;49.602;8.722;2022-12-07T09:19:52;5.80;99.90
4651;DHT22;2338;49.602;8.722;2022-12-07T09:22:37;5.90;99.90
4651;DHT22;2338;49.602;8.722;2022-12-07T09:25:23;5.80;99.90
4651;DHT22;2338;49.602;8.722;2022-12-07T09:28:10;5.80;99.90
4651;DHT22;2338;49.602;8.722;2022-12-07T09:30:55;5.80;99.90
4651;DHT22;2338;49.602;8.722;2022-12-07T09:33:41;5.70;99.90
4651;DHT22;2338;49.602;8.722;2022-12-07T09:36:28;5.70;99.90
4651;DHT22;2338;49.602;8.722;2022-12-07T09:39:14;5.70;99.90
4651;DHT22;2338;49.602;8.722;2022-12-07T09:42:03;5.80;99.90
4651;DHT22;2338;49.602;8.722;2022-12-07T09:44:50;5.80;99.90
4651;DHT22;2338;49.602;8.722;2022-12-07T09:47:36;5.60;99.90
4651;DHT22;2338;49.602;8.722;2022-12-07T09:50:26;5.60;99.90
4651;DHT22;2338;49.602;8.722;2022-12-07T09:53:14;5.70;99.90
4651;DHT22;2338;49.602;8.722;2022-12-07T09:56:01;5.70;99.90
4651;DHT22;2338;49.602;8.722;2022-12-07T09:58:47;5.80;99.90
4651;DHT22;2338;49.602;8.722;2022-12-07T10:01:34;5.60;99.90
4651;DHT22;2338;49.602;8.722;2022-12-07T10:04:22;5.60;99.90
4651;DHT22;2338;49.602;8.722;2022-12-07T10:07:09;5.60;99.90
4651;DHT22;2338;49.602;8.722;2022-12-07T10:09:54;5.50;99.90
4651;DHT22;2338;49.602;8.722;2022-12-07T10:12:57;5.60;99.90
4651;DHT22;2338;49.602;8.722;2022-12-07T10:15:49;5.60;99.90
4651;DHT22;2338;49.602;8.722;2022-12-07T10:18:39;5.60;99.90
4651;DHT22;2338;49.602;8.722;2022-12-07T10:21:26;5.40;99.90
4651;DHT22;2338;49.602;8.722;2022-12-07T10:24:14;5.50;99.90
4651;DHT22;2338;49.602;8.722;2022-12-07T10:27:00;5.60;99.90
4651;DHT22;2338;49.602;8.722;2022-12-07T10:29:48;5.60;99.90
4651;DHT22;2338;49.602;8.722;2022-12-07T10:32:35;5.70;99.90
4651;DHT22;2338;49.602;8.722;2022-12-07T10:35:25;5.70;99.90
4651;DHT22;2338;49.602;8.722;2022-12-07T10:38:16;5.70;99.90
4651;DHT22;2338;49.602;8.722;2022-12-07T10:41:04;5.70;99.90
4651;DHT22;2338;49.602;8.722;2022-12-07T10:43:52;5.80;99.90
4651;DHT22;2338;49.602;8.722;2022-12-07T10:46:58;5.80;99.90
4651;DHT22;2338;49.602;8.722;2022-12-07T10:50:17;5.80;99.90
4651;DHT22;2338;49.602;8.722;2022-12-07T10:53:28;5.80;99.90
4651;DHT22;2338;49.602;8.722;2022-12-07T10:59:56;5.70;99.90
4651;DHT22;2338;49.602;8.722;2022-12-07T11:06:13;5.60;99.90
4651;DHT22;2338;49.602;8.722;2022-12-07T11:09:14;5.60;99.90
4651;DHT22;2338;49.602;8.722;2022-12-07T11:12:08;5.60;99.90
4651;DHT22;2338;49.602;8.722;2022-12-07T11:15:00;5.70;99.90
4651;DHT22;2338;49.602;8.722;2022-12-07T11:17:52;5.70;99.90
4651;DHT22;2338;49.602;8.722;2022-12-07T11:20:43;5.80;99.90
4651;DHT22;2338;49.602;8.722;2022-12-07T11:23:40;5.80;99.90
4651;DHT22;2338;49.602;8.722;2022-12-07T11:26:54;6.00;99.90
4651;DHT22;2338;49.602;8.722;2022-12-07T11:29:54;6.00;99.90
4651;DHT22;2338;49.602;8.722;2022-12-07T11:35:57;6.10;99.90
4651;DHT22;2338;49.602;8.722;2022-12-07T11:38:49;6.20;99.90
4651;DHT22;2338;49.602;8.722;2022-12-07T11:41:39;6.20;99.90
4651;DHT22;2338;49.602;8.722;2022-12-07T11:44:32;6.20;99.90
4651;DHT22;2338;49.602;8.722;2022-12-07T11:47:25;6.10;99.90
4651;DHT22;2338;49.602;8.722;2022-12-07T11:50:25;6.20;99.90
4651;DHT22;2338;49.602;8.722;2022-12-07T11:53:16;6.30;99.90
4651;DHT22;2338;49.602;8.722;2022-12-07T11:56:09;6.40;99.90
4651;DHT22;2338;49.602;8.722;2022-12-07T11:59:01;6.50;99.90
4651;DHT22;2338;49.602;8.722;2022-12-07T12:01:53;6.50;99.90
4651;DHT22;2338;49.602;8.722;2022-12-07T12:04:49;6.60;99.90
4651;DHT22;2338;49.602;8.722;2022-12-07T12:07:36;6.60;99.90
4651;DHT22;2338;49.602;8.722;2022-12-07T12:10:29;6.50;99.90
4651;DHT22;2338;49.602;8.722;2022-12-07T12:13:40;6.30;99.90
4651;DHT22;2338;49.602;8.722;2022-12-07T12:16:55;6.30;99.90
4651;DHT22;2338;49.602;8.722;2022-12-07T12:19:58;6.20;99.90
4651;DHT22;2338;49.602;8.722;2022-12-07T12:22:47;6.30;99.90
4651;DHT22;2338;49.602;8.722;2022-12-07T12:25:39;6.20;99.90
4651;DHT22;2338;49.602;8.722;2022-12-07T12:28:29;6.30;99.90
4651;DHT22;2338;49.602;8.722;2022-12-07T12:31:19;6.40;99.90
4651;DHT22;2338;49.602;8.722;2022-12-07T12:34:39;6.40;99.90
4651;DHT22;2338;49.602;8.722;2022-12-07T12:37:42;6.50;99.90
4651;DHT22;2338;49.602;8.722;2022-12-07T12:40:40;6.50;99.90
4651;DHT22;2338;49.602;8.722;2022-12-07T12:43:46;6.50;99.90
4651;DHT22;2338;49.602;8.722;2022-12-07T12:46:49;6.50;99.90
4651;DHT22;2338;49.602;8.722;2022-12-07T12:49:38;6.60;99.90
4651;DHT22;2338;49.602;8.722;2022-12-07T12:52:52;6.50;99.90
4651;DHT22;2338;49.602;8.722;2022-12-07T12:56:12;6.50;99.90
4651;DHT22;2338;49.602;8.722;2022-12-07T12:59:23;6.30;99.90
4651;DHT22;2338;49.602;8.722;2022-12-07T13:02:19;6.40;99.90
4651;DHT22;2338;49.602;8.722;2022-12-07T13:05:19;6.40;99.90
4651;DHT22;2338;49.602;8.722;2022-12-07T13:08:13;6.40;99.90
4651;DHT22;2338;49.602;8.722;2022-12-07T13:11:17;6.40;99.90
4651;DHT22;2338;49.602;8.722;2022-12-07T13:14:42;6.40;99.90
4651;DHT22;2338;49.602;8.722;2022-12-07T13:17:57;6.40;99.90
4651;DHT22;2338;49.602;8.722;2022-12-07T13:20:55;6.40;99.90
4651;DHT22;2338;49.602;8.722;2022-12-07T13:23:54;6.40;99.90
4651;DHT22;2338;49.602;8.722;2022-12-07T13:26:42;6.50;99.90
4651;DHT22;2338;49.602;8.722;2022-12-07T13:29:36;6.50;99.90
4651;DHT22;2338;49.602;8.722;2022-12-07T13:32:24;6.60;99.90
4651;DHT22;2338;49.602;8.722;2022-12-07T13:35:33;6.60;99.90
4651;DHT22;2338;49.602;8.722;2022-12-07T13:38:26;6.70;99.90
4651;DHT22;2338;49.602;8.722;2022-12-07T13:41:14;6.70;99.90
4651;DHT22;2338;49.602;8.722;2022-12-07T13:44:02;6.70;99.90
4651;DHT22;2338;49.602;8.722;2022-12-07T13:46:53;6.60;99.90
4651;DHT22;2338;49.602;8.722;2022-12-07T13:49:47;6.60;99.90
4651;DHT22;2338;49.602;8.722;2022-12-07T13:52:32;6.60;99.90
4651;DHT22;2338;49.602;8.722;2022-12-07T13:55:19;6.70;99.90
4651;DHT22;2338;49.602;8.722;2022-12-07T13:58:07;6.60;99.90
4651;DHT22;2338;49.602;8.722;2022-12-07T14:00:53;6.70;99.90
4651;DHT22;2338;49.602;8.722;2022-12-07T14:03:40;6.70;99.90
4651;DHT22;2338;49.602;8.722;2022-12-07T14:06:26;6.60;99.90
4651;DHT22;2338;49.602;8.722;2022-12-07T14:09:18;6.60;99.90
4651;DHT22;2338;49.602;8.722;2022-12-07T14:12:06;6.60;99.90
4651;DHT22;2338;49.602;8.722;2022-12-07T14:14:52;6.60;99.90
4651;DHT22;2338;49.602;8.722;2022-12-07T14:17:49;6.50;99.90
4651;DHT22;2338;49.602;8.722;2022-12-07T14:20:37;6.50;99.90
4651;DHT22;2338;49.602;8.722;2022-12-07T14:23:25;6.50;99.90
4651;DHT22;2338;49.602;8.722;2022-12-07T14:26:13;6.40;99.90
4651;DHT22;2338;49.602;8.722;2022-12-07T14:29:22;6.30;99.90
4651;DHT22;2338;49.602;8.722;2022-12-07T14:32:21;6.30;99.90
4651;DHT22;2338;49.602;8.722;2022-12-07T14:35:13;6.40;99.90
4651;DHT22;2338;49.602;8.722;2022-12-07T14:37:59;6.40;99.90
4651;DHT22;2338;49.602;8.722;2022-12-07T14:40:45;6.50;99.90
4651;DHT22;2338;49.602;8.722;2022-12-07T14:43:30;6.40;99.90
4651;DHT22;2338;49.602;8.722;2022-12-07T14:46:17;6.30;99.90
4651;DHT22;2338;49.602;8.722;2022-12-07T14:49:03;6.40;99.90
4651;DHT22;2338;49.602;8.722;2022-12-07T14:51:49;6.40;99.90
4651;DHT22;2338;49.602;8.722;2022-12-07T14:54:35;6.50;99.90
4651;DHT22;2338;49.602;8.722;2022-12-07T14:57:21;6.50;99.90
4651;DHT22;2338;49.602;8.722;2022-12-07T15:00:08;6.50;99.90
4651;DHT22;2338;49.602;8.722;2022-12-07T15:02:56;6.40;99.90
4651;DHT22;2338;49.602;8.722;2022-12-07T15:05:41;6.40;99.90
4651;DHT22;2338;49.602;8.722;2022-12-07T15:08:27;6.30;99.90
4651;DHT22;2338;49.602;8.722;2022-12-07T15:11:13;6.30;99.90
4651;DHT22;2338;49.602;8.722;2022-12-07T15:13:59;6.30;99.90
4651;DHT22;2338;49.602;8.722;2022-12-07T15:16:55;6.20;99.90
4651;DHT22;2338;49.602;8.722;2022-12-07T15:19:42;6.20;99.90
4651;DHT22;2338;49.602;8.722;2022-12-07T15:22:28;6.00;99.90
4651;DHT22;2338;49.602;8.722;2022-12-07T15:25:15;5.90;99.90
4651;DHT22;2338;49.602;8.722;2022-12-07T15:28:01;5.90;99.90
4651;DHT22;2338;49.602;8.722;2022-12-07T15:30:47;5.90;99.90
4651;DHT22;2338;49.602;8.722;2022-12-07T15:33:33;5.90;99.90
4651;DHT22;2338;49.602;8.722;2022-12-07T15:36:22;5.90;99.90
4651;DHT22;2338;49.602;8.722;2022-12-07T15:39:08;5.80;99.90
4651;DHT22;2338;49.602;8.722;2022-12-07T15:41:54;5.80;99.90
4651;DHT22;2338;49.602;8.722;2022-12-07T15:44:39;5.60;99.90
4651;DHT22;2338;49.602;8.722;2022-12-07T15:47:43;5.50;99.90
4651;DHT22;2338;49.602;8.722;2022-12-07T15:50:29;5.70;99.90
4651;DHT22;2338;49.602;8.722;2022-12-07T15:53:17;5.70;99.90
4651;DHT22;2338;49.602;8.722;2022-12-07T15:56:06;5.70;99.90
4651;DHT22;2338;49.602;8.722;2022-12-07T15:58:52;5.80;99.90
4651;DHT22;2338;49.602;8.722;2022-12-07T16:01:37;5.80;99.90
4651;DHT22;2338;49.602;8.722;2022-12-07T16:04:23;5.80;99.90
4651;DHT22;2338;49.602;8.722;2022-12-07T16:07:09;5.80;99.90
4651;DHT22;2338;49.602;8.722;2022-12-07T16:09:57;5.80;99.90
4651;DHT22;2338;49.602;8.722;2022-12-07T16:12:42;5.80;99.90
4651;DHT22;2338;49.602;8.722;2022-12-07T16:15:28;5.80;99.90
4651;DHT22;2338;49.602;8.722;2022-12-07T16:18:13;5.80;99.90
4651;DHT22;2338;49.602;8.722;2022-12-07T16:20:59;5.80;99.90
4651;DHT22;2338;49.602;8.722;2022-12-07T16:23:45;5.80;99.90
4651;DHT22;2338;49.602;8.722;2022-12-07T16:26:35;5.70;99.90
4651;DHT22;2338;49.602;8.722;2022-12-07T16:29:21;5.70;99.90
4651;DHT22;2338;49.602;8.722;2022-12-07T16:32:07;5.70;99.90
4651;DHT22;2338;49.602;8.722;2022-12-07T16:34:53;5.70;99.90
4651;DHT22;2338;49.602;8.722;2022-12-07T16:37:41;5.70;99.90
4651;DHT22;2338;49.602;8.722;2022-12-07T16:40:27;5.70;99.90
4651;DHT22;2338;49.602;8.722;2022-12-07T16:43:14;5.70;99.90
4651;DHT22;2338;49.602;8.722;2022-12-07T16:46:00;5.60;99.90
4651;DHT22;2338;49.602;8.722;2022-12-07T16:48:45;5.70;99.90
4651;DHT22;2338;49.602;8.722;2022-12-07T16:51:32;5.70;99.90
4651;DHT22;2338;49.602;8.722;2022-12-07T16:54:18;5.60;99.90
4651;DHT22;2338;49.602;8.722;2022-12-07T16:57:04;5.70;99.90
4651;DHT22;2338;49.602;8.722;2022-12-07T16:59:51;5.70;99.90
4651;DHT22;2338;49.602;8.722;2022-12-07T17:02:36;5.70;99.90
4651;DHT22;2338;49.602;8.722;2022-12-07T17:05:22;5.70;99.90
4651;DHT22;2338;49.602;8.722;2022-12-07T17:08:09;5.70;99.90
4651;DHT22;2338;49.602;8.722;2022-12-07T17:10:55;5.70;99.90
4651;DHT22;2338;49.602;8.722;2022-12-07T17:13:41;5.70;99.90
4651;DHT22;2338;49.602;8.722;2022-12-07T17:16:45;5.70;99.90
4651;DHT22;2338;49.602;8.722;2022-12-07T17:19:31;5.70;99.90
4651;DHT22;2338;49.602;8.722;2022-12-07T17:22:17;5.70;99.90
4651;DHT22;2338;49.602;8.722;2022-12-07T17:25:03;5.70;99.90
4651;DHT22;2338;49.602;8.722;2022-12-07T17:27:48;5.80;99.90
4651;DHT22;2338;49.602;8.722;2022-12-07T17:30:34;5.80;99.90
4651;DHT22;2338;49.602;8.722;2022-12-07T17:33:21;5.80;99.90
4651;DHT22;2338;49.602;8.722;2022-12-07T17:36:10;5.70;99.90
4651;DHT22;2338;49.602;8.722;2022-12-07T17:38:56;5.70;99.90
4651;DHT22;2338;49.602;8.722;2022-12-07T17:41:42;5.70;99.90
4651;DHT22;2338;49.602;8.722;2022-12-07T17:44:54;5.60;99.90
4651;DHT22;2338;49.602;8.722;2022-12-07T17:47:39;5.60;99.90
4651;DHT22;2338;49.602;8.722;2022-12-07T17:50:26;5.70;99.90
4651;DHT22;2338;49.602;8.722;2022-12-07T17:53:29;5.70;99.90
4651;DHT22;2338;49.602;8.722;2022-12-07T17:56:15;5.70;99.90
4651;DHT22;2338;49.602;8.722;2022-12-07T17:59:00;5.80;99.90
4651;DHT22;2338;49.602;8.722;2022-12-07T18:01:46;5.70;99.90
4651;DHT22;2338;49.602;8.722;2022-12-07T18:04:32;5.70;99.90
4651;DHT22;2338;49.602;8.722;2022-12-07T18:07:19;5.70;99.90
4651;DHT22;2338;49.602;8.722;2022-12-07T18:10:05;5.70;99.90
4651;DHT22;2338;49.602;8.722;2022-12-07T18:12:52;5.70;99.90
4651;DHT22;2338;49.602;8.722;2022-12-07T18:15:58;5.80;99.90
4651;DHT22;2338;49.602;8.722;2022-12-07T18:18:44;5.90;99.90
4651;DHT22;2338;49.602;8.722;2022-12-07T18:21:30;5.80;99.90
4651;DHT22;2338;49.602;8.722;2022-12-07T18:24:17;5.80;99.90
4651;DHT22;2338;49.602;8.722;2022-12-07T18:27:03;5.70;99.90
4651;DHT22;2338;49.602;8.722;2022-12-07T18:29:49;5.80;99.90
4651;DHT22;2338;49.602;8.722;2022-12-07T18:32:34;5.80;99.90
4651;DHT22;2338;49.602;8.722;2022-12-07T18:35:20;5.70;99.90
4651;DHT22;2338;49.602;8.722;2022-12-07T18:38:06;5.80;99.90
4651;DHT22;2338;49.602;8.722;2022-12-07T18:40:53;5.70;99.90
4651;DHT22;2338;49.602;8.722;2022-12-07T18:43:39;5.70;99.90
4651;DHT22;2338;49.602;8.722;2022-12-07T18:46:25;5.70;99.90
4651;DHT22;2338;49.602;8.722;2022-12-07T18:49:11;5.60;99.90
4651;DHT22;2338;49.602;8.722;2022-12-07T18:51:57;5.70;99.90
4651;DHT22;2338;49.602;8.722;2022-12-07T18:54:43;5.80;99.90